Time;durP1;ratioP1;P1;durP2;ratioP2;P2;SDS_P1;SDS_P2;PMS_P1;PMS_P2;Temp;Humidity;BMP_temperature;BMP_pressure;BME280_temperature;BME280_humidity;BME280_pressure;Samples;Min_cycle;Max_cycle;Signal;HPM_P1;HPM_P2
2021/12/25 00:02:09;;;;;;;29.43;16.97;;;;;;;3.35;89.45;94444.66;5091367;28;20230;-82
2021/12/25 00:04:55;;;;;;;37.17;17.57;;;;;;;3.10;91.24;94440.78;5090248;28;20294;-82
2021/12/25 00:07:35;;;;;;;33.17;17.47;;;;;;;3.00;93.53;94450.50;5084649;28;20204;-81
2021/12/25 00:10:07;;;;;;;29.13;16.27;;;;;;;3.03;93.09;94434.75;5091541;28;20197;-81
2021/12/25 00:12:36;;;;;;;32.53;15.97;;;;;;;3.20;92.61;94449.00;5095450;28;20193;-81
2021/12/25 00:15:07;;;;;;;29.80;16.60;;;;;;;3.43;89.63;94465.09;5095178;28;20292;-82
2021/12/25 00:17:44;;;;;;;27.77;15.93;;;;;;;3.19;91.08;94450.00;5095702;28;20212;-81
2021/12/25 00:20:13;;;;;;;29.57;16.70;;;;;;;3.05;92.94;94462.81;5095393;28;20635;-81
2021/12/25 00:22:43;;;;;;;33.07;17.30;;;;;;;3.15;92.80;94487.25;5094717;28;20719;-82
2021/12/25 00:25:13;;;;;;;30.77;16.60;;;;;;;3.33;91.05;94500.53;5082478;28;20663;-82
2021/12/25 00:27:46;;;;;;;29.50;16.40;;;;;;;3.39;90.48;94489.56;5094632;28;20234;-83
2021/12/25 00:30:31;;;;;;;28.00;16.03;;;;;;;3.50;89.74;94495.22;5095443;28;20211;-78
2021/12/25 00:33:07;;;;;;;27.90;15.40;;;;;;;3.59;87.98;94482.09;5098252;28;20200;-86
2021/12/25 00:35:36;;;;;;;27.13;15.20;;;;;;;3.55;87.91;94500.63;5101048;28;20212;-79
2021/12/25 00:38:05;;;;;;;29.73;15.17;;;;;;;3.51;87.86;94495.03;5096180;28;20197;-84
2021/12/25 00:40:34;;;;;;;27.13;15.37;;;;;;;3.43;87.79;94492.56;5088998;28;20208;-81
2021/12/25 00:43:04;;;;;;;28.57;15.83;;;;;;;3.35;89.04;94508.84;5080318;28;20232;-81
2021/12/25 00:45:33;;;;;;;28.70;15.47;;;;;;;3.45;88.43;94511.16;5098751;28;20915;-80
2021/12/25 00:48:05;;;;;;;29.03;15.70;;;;;;;3.52;87.38;94500.97;5095893;28;20201;-77
2021/12/25 00:50:34;;;;;;;27.47;15.23;;;;;;;3.50;87.26;94498.56;5094026;28;20201;-78
2021/12/25 00:53:03;;;;;;;27.43;14.63;;;;;;;3.61;86.45;94495.56;5086820;28;20200;-78
2021/12/25 00:55:33;;;;;;;27.37;15.10;;;;;;;3.61;85.51;94484.50;5091852;28;20555;-77
2021/12/25 00:58:02;;;;;;;26.30;14.17;;;;;;;3.46;85.84;94494.00;5085609;28;20197;-78
2021/12/25 01:00:31;;;;;;;26.20;14.73;;;;;;;3.07;89.42;94483.97;5093107;28;20204;-78
2021/12/25 01:03:00;;;;;;;25.10;13.47;;;;;;;3.16;91.74;94485.50;5093505;28;20293;-78
2021/12/25 01:05:31;;;;;;;28.07;14.90;;;;;;;3.25;90.93;94485.22;5093311;28;20208;-77
2021/12/25 01:08:00;;;;;;;26.20;13.20;;;;;;;3.35;90.25;94492.66;5093249;28;20204;-78
2021/12/25 01:10:29;;;;;;;24.90;13.87;;;;;;;3.39;89.04;94491.31;5093873;28;20204;-77
2021/12/25 01:13:05;;;;;;;22.83;13.67;;;;;;;3.52;88.30;94488.16;5092556;28;20287;-78
2021/12/25 01:15:42;;;;;;;26.43;14.87;;;;;;;3.62;87.55;94501.50;5094837;28;20204;-78
2021/12/25 01:21:14;;;;;;;27.87;14.07;;;;;;;3.62;86.58;94468.09;5058939;28;20200;-77
2021/12/25 01:29:34;;;;;;;26.77;15.00;;;;;;;3.70;86.39;94478.25;5073848;28;20580;-77
2021/12/25 01:37:43;;;;;;;28.10;15.77;;;;;;;3.71;85.97;94474.72;5088094;28;20203;-77
2021/12/25 01:48:30;;;;;;;44.90;23.00;;;;;;;3.41;86.58;94464.50;5092864;28;20208;-79
2021/12/25 01:50:59;;;;;;;47.87;23.67;;;;;;;3.38;87.94;94469.97;5092860;28;20588;-79
2021/12/25 01:53:30;;;;;;;40.93;21.70;;;;;;;3.44;88.21;94473.59;5093152;28;20201;-78
2021/12/25 01:56:01;;;;;;;45.30;23.40;;;;;;;3.43;88.15;94472.03;5092960;28;20531;-78
2021/12/25 01:58:30;;;;;;;47.23;24.03;;;;;;;3.50;88.02;94466.94;5092791;28;20258;-78
2021/12/25 02:01:00;;;;;;;46.40;24.90;;;;;;;3.46;88.12;94463.97;5092539;28;20205;-78
2021/12/25 02:03:32;;;;;;;41.90;22.33;;;;;;;3.55;87.74;94460.31;5092656;28;20220;-77
2021/12/25 02:06:01;;;;;;;53.40;28.03;;;;;;;3.54;87.25;94456.16;5091989;28;20254;-78
2021/12/25 02:08:33;;;;;;;52.47;27.73;;;;;;;3.58;87.58;94462.50;5092584;28;20205;-77
2021/12/25 02:11:02;;;;;;;54.40;27.70;;;;;;;3.50;86.97;94451.53;5085750;28;20209;-77
2021/12/25 02:13:32;;;;;;;42.07;21.77;;;;;;;3.37;88.03;94445.31;5091994;28;20204;-77
2021/12/25 02:16:06;;;;;;;47.20;23.63;;;;;;;3.10;91.27;94458.75;5086159;28;20586;-76
2021/12/25 02:18:55;;;;;;;50.83;26.87;;;;;;;3.10;93.09;94456.19;5091502;28;20266;-76
2021/12/25 02:21:32;;;;;;;48.13;24.30;;;;;;;3.21;92.49;94448.03;5091264;28;20287;-79
2021/12/25 02:24:01;;;;;;;53.27;22.83;;;;;;;3.37;91.30;94441.94;5090980;28;20569;-78
2021/12/25 02:26:30;;;;;;;47.77;22.27;;;;;;;3.47;90.58;94446.75;5092009;28;20208;-77
2021/12/25 02:28:59;;;;;;;38.23;20.50;;;;;;;3.64;90.66;94455.84;5091598;28;20297;-77
2021/12/25 02:31:29;;;;;;;40.23;20.07;;;;;;;3.76;90.57;94451.84;5091788;28;20418;-78
2021/12/25 02:33:58;;;;;;;36.60;19.70;;;;;;;3.84;90.25;94442.25;5092019;28;20196;-79
2021/12/25 02:36:31;;;;;;;39.03;19.50;;;;;;;4.00;87.97;94446.38;5085453;28;20213;-78
2021/12/25 02:39:01;;;;;;;37.30;19.27;;;;;;;3.98;87.11;94432.91;5085552;28;20201;-77
2021/12/25 02:41:30;;;;;;;34.60;19.73;;;;;;;4.14;86.61;94445.53;5091600;28;20200;-77
2021/12/25 02:43:59;;;;;;;37.43;19.80;;;;;;;4.19;86.24;94442.38;5091765;28;20220;-78
2021/12/25 02:46:28;;;;;;;35.90;19.43;;;;;;;4.11;85.28;94435.59;5096201;28;20233;-77
2021/12/25 02:48:59;;;;;;;32.30;18.73;;;;;;;4.26;85.37;94446.63;5091573;28;20208;-76
2021/12/25 02:51:30;;;;;;;31.90;18.37;;;;;;;4.27;84.14;94440.50;5091362;28;20292;-77
2021/12/25 02:53:59;;;;;;;30.57;17.57;;;;;;;4.24;83.73;94438.28;5091454;28;20258;-76
2021/12/25 02:56:28;;;;;;;34.63;18.30;;;;;;;4.16;84.58;94443.56;5090570;28;20656;-77
2021/12/25 02:58:58;;;;;;;32.17;17.73;;;;;;;4.16;85.13;94440.97;5090951;28;20757;-77
2021/12/25 03:01:27;;;;;;;29.73;17.40;;;;;;;4.20;85.50;94437.06;5091239;28;20207;-77
2021/12/25 03:03:56;;;;;;;31.40;17.77;;;;;;;4.12;85.26;94434.63;5091031;28;20699;-76
2021/12/25 03:06:25;;;;;;;32.30;17.80;;;;;;;4.16;85.11;94455.63;5091201;28;20203;-77
2021/12/25 03:08:56;;;;;;;41.23;20.57;;;;;;;4.17;84.98;94452.88;5091415;28;20713;-77
2021/12/25 03:11:26;;;;;;;38.83;20.33;;;;;;;4.21;84.80;94441.25;5091167;28;20204;-77
2021/12/25 03:14:00;;;;;;;37.40;19.60;;;;;;;4.16;84.96;94435.84;5090765;28;20247;-77
2021/12/25 03:16:29;;;;;;;42.87;22.13;;;;;;;3.99;86.04;94426.78;5091883;28;20204;-77
2021/12/25 03:18:59;;;;;;;40.67;21.93;;;;;;;3.95;86.77;94443.56;5091178;28;20199;-76
2021/12/25 03:21:28;;;;;;;40.27;20.90;;;;;;;3.95;86.73;94446.13;5090587;28;20208;-77
2021/12/25 03:24:00;;;;;;;37.90;21.30;;;;;;;3.80;87.54;94441.03;5085718;28;20220;-77
2021/12/25 03:26:29;;;;;;;44.63;21.17;;;;;;;3.96;87.48;94452.84;5090120;28;20209;-79
2021/12/25 03:29:02;;;;;;;39.87;20.07;;;;;;;3.86;87.65;94444.66;5090358;28;20241;-78
2021/12/25 03:31:32;;;;;;;34.97;18.67;;;;;;;3.71;87.62;94451.59;5090729;28;20313;-79
2021/12/25 03:34:01;;;;;;;41.53;21.87;;;;;;;3.60;92.16;94457.22;5084733;28;20636;-79
2021/12/25 03:36:30;;;;;;;35.00;19.17;;;;;;;3.60;90.61;94450.31;5084437;28;20208;-77
2021/12/25 03:39:01;;;;;;;34.03;19.13;;;;;;;3.55;91.00;94437.19;5091564;28;20200;-79
2021/12/25 03:41:30;;;;;;;36.07;19.10;;;;;;;3.59;92.06;94460.75;5090865;28;20209;-79
2021/12/25 03:44:00;;;;;;;38.03;20.13;;;;;;;3.67;91.27;94443.44;5090946;28;20844;-79
2021/12/25 03:46:30;;;;;;;40.30;19.97;;;;;;;3.78;91.47;94437.84;5094447;28;20232;-78
2021/12/25 03:49:10;;;;;;;38.70;19.87;;;;;;;3.93;90.96;94440.38;5089801;28;20215;-79
2021/12/25 04:00:09;;;;;;;30.57;16.20;;;;;;;4.24;86.74;94451.13;5080335;28;20208;-77
2021/12/25 04:02:50;;;;;;;30.03;16.43;;;;;;;4.30;86.91;94455.56;5090483;28;20274;-78
2021/12/25 04:05:24;;;;;;;28.97;15.90;;;;;;;4.34;85.24;94450.84;5090380;28;20227;-76
2021/12/25 04:08:03;;;;;;;28.23;15.03;;;;;;;4.31;85.32;94435.78;5089415;28;20209;-77
2021/12/25 04:10:38;;;;;;;24.97;13.90;;;;;;;4.28;85.71;94441.28;5090270;28;20244;-77
2021/12/25 04:13:10;;;;;;;24.70;13.23;;;;;;;4.39;85.30;94456.22;5090799;28;20199;-77
2021/12/25 04:15:39;;;;;;;21.03;12.80;;;;;;;4.44;84.78;94451.34;5090918;28;20231;-78
2021/12/25 04:18:08;;;;;;;26.70;15.03;;;;;;;4.43;84.76;94445.41;5091740;28;20201;-81
2021/12/25 04:20:38;;;;;;;27.90;14.10;;;;;;;4.48;84.15;94447.41;5091819;28;20672;-81
2021/12/25 04:23:11;;;;;;;26.57;14.67;;;;;;;4.37;84.51;94456.41;5091370;28;20221;-81
2021/12/25 04:25:41;;;;;;;29.37;15.10;;;;;;;4.28;85.90;94472.16;5092087;28;20189;-82
2021/12/25 04:28:17;;;;;;;37.33;19.30;;;;;;;4.19;87.19;94458.63;5091802;28;20228;-82
2021/12/25 04:31:05;;;;;;;32.63;17.60;;;;;;;4.28;86.16;94467.81;5085707;28;20208;-81
2021/12/25 04:50:30;;;;;;;21.63;12.43;;;;;;;3.82;92.05;94464.78;5091492;28;20208;-82
2021/12/25 05:04:19;;;;;;;24.93;12.97;;;;;;;4.34;86.89;94477.38;5069811;28;20239;-83
2021/12/25 05:06:48;;;;;;;25.13;12.23;;;;;;;4.39;86.54;94482.75;5080936;28;20196;-83
2021/12/25 05:09:18;;;;;;;21.07;11.77;;;;;;;4.41;85.67;94493.66;5087874;28;20200;-82
2021/12/25 05:11:47;;;;;;;22.17;11.40;;;;;;;4.47;85.20;94481.84;5093368;28;20666;-82
2021/12/25 05:14:18;;;;;;;20.87;12.20;;;;;;;4.36;84.91;94483.13;5091705;28;20198;-82
2021/12/25 05:16:47;;;;;;;19.03;11.63;;;;;;;4.35;85.89;94491.81;5090414;28;20195;-81
2021/12/25 05:19:17;;;;;;;20.23;11.97;;;;;;;4.46;85.46;94491.34;5086515;28;20197;-84
2021/12/25 05:22:02;;;;;;;24.47;12.27;;;;;;;4.54;84.59;94506.63;5074263;28;20209;-83
2021/12/25 05:24:31;;;;;;;21.77;12.43;;;;;;;4.47;85.20;94505.00;5091782;28;20308;-83
2021/12/25 05:27:01;;;;;;;18.73;11.23;;;;;;;4.38;85.25;94501.75;5089955;28;20237;-82
2021/12/25 05:29:34;;;;;;;18.63;10.67;;;;;;;4.44;85.85;94510.50;5078076;28;20431;-83
2021/12/25 05:32:03;;;;;;;21.87;10.80;;;;;;;4.32;85.85;94486.25;5094220;28;20200;-83
2021/12/25 05:34:32;;;;;;;21.40;10.97;;;;;;;4.27;86.76;94499.63;5093867;28;20232;-82
2021/12/25 05:37:03;;;;;;;19.50;11.00;;;;;;;4.32;86.56;94499.09;5093935;28;20736;-82
2021/12/25 05:39:32;;;;;;;18.03;10.63;;;;;;;4.36;86.30;94497.75;5094157;28;20558;-81
2021/12/25 05:42:01;;;;;;;16.27;10.27;;;;;;;4.36;86.25;94510.59;5093954;28;20262;-82
2021/12/25 05:44:32;;;;;;;17.30;10.83;;;;;;;4.41;86.00;94506.53;5094002;28;20225;-81
2021/12/25 05:47:01;;;;;;;18.10;10.97;;;;;;;4.43;85.84;94504.56;5093919;28;20631;-82
2021/12/25 05:49:30;;;;;;;17.10;9.87;;;;;;;4.37;86.41;94510.44;5093737;28;20204;-82
2021/12/25 05:51:59;;;;;;;18.33;10.10;;;;;;;4.39;85.90;94516.19;5093454;28;20949;-81
2021/12/25 05:54:28;;;;;;;18.83;11.10;;;;;;;4.38;87.04;94512.03;5079887;28;20746;-81
2021/12/25 05:56:58;;;;;;;17.23;9.73;;;;;;;4.44;87.04;94523.38;5093689;28;20269;-81
2021/12/25 05:59:27;;;;;;;19.33;11.03;;;;;;;4.53;86.21;94535.13;5093561;28;20197;-81
2021/12/25 06:01:58;;;;;;;19.13;10.53;;;;;;;4.51;85.67;94529.34;5092877;28;20205;-78
2021/12/25 06:04:28;;;;;;;21.27;11.27;;;;;;;4.26;86.45;94541.78;5092088;28;20233;-80
2021/12/25 06:06:57;;;;;;;19.87;11.50;;;;;;;3.98;91.35;94533.19;5079504;28;20750;-80
2021/12/25 06:09:26;;;;;;;20.13;11.03;;;;;;;4.01;92.75;94533.59;5093053;28;20296;-81
2021/12/25 06:11:55;;;;;;;22.37;10.77;;;;;;;4.15;90.55;94523.47;5092952;28;20234;-81
2021/12/25 06:14:24;;;;;;;21.83;11.30;;;;;;;4.23;89.38;94524.16;5093191;28;20613;-80
2021/12/25 06:16:54;;;;;;;18.50;10.00;;;;;;;4.35;87.81;94538.13;5099514;28;20201;-81
2021/12/25 06:19:24;;;;;;;16.97;10.13;;;;;;;4.40;87.30;94530.66;5092617;28;20207;-81
2021/12/25 06:21:53;;;;;;;18.03;10.40;;;;;;;4.54;87.19;94547.81;5092925;28;20208;-79
2021/12/25 06:24:23;;;;;;;23.40;13.17;;;;;;;4.65;87.30;94540.59;5092228;28;20224;-79
2021/12/25 06:26:52;;;;;;;23.80;11.43;;;;;;;4.57;85.62;94508.84;5084517;28;20266;-79
2021/12/25 06:29:22;;;;;;;20.13;11.93;;;;;;;4.74;85.58;94531.72;5092014;28;20208;-79
2021/12/25 06:31:52;;;;;;;24.77;13.23;;;;;;;4.78;84.60;94532.97;5092480;28;20209;-83
2021/12/25 06:34:24;;;;;;;22.73;12.13;;;;;;;4.84;85.28;94539.97;5093110;28;20199;-83
2021/12/25 06:36:53;;;;;;;21.47;11.97;;;;;;;4.80;84.26;94523.28;5092895;28;20208;-81
2021/12/25 06:39:22;;;;;;;29.10;14.40;;;;;;;4.93;83.97;94544.00;5091682;28;20204;-82
2021/12/25 06:41:51;;;;;;;39.07;20.73;;;;;;;4.98;83.70;94542.44;5091107;28;20204;-82
2021/12/25 06:44:24;;;;;;;41.77;21.83;;;;;;;4.97;83.97;94534.91;5092532;28;20721;-82
2021/12/25 06:46:54;;;;;;;35.47;20.53;;;;;;;5.09;83.46;94554.00;5086125;28;20209;-82
2021/12/25 06:49:25;;;;;;;38.37;19.73;;;;;;;5.04;83.21;94548.63;5088275;28;20193;-82
2021/12/25 06:51:55;;;;;;;39.90;21.17;;;;;;;5.05;82.98;94548.44;5092688;28;20204;-84
2021/12/25 06:54:25;;;;;;;47.13;25.60;;;;;;;5.05;83.46;94557.97;5092587;28;20284;-87
2021/12/25 06:56:54;;;;;;;46.93;26.03;;;;;;;4.96;83.19;94549.53;5092286;28;20291;-73
2021/12/25 06:59:23;;;;;;;47.90;26.90;;;;;;;4.91;84.55;94563.97;5090760;28;20204;-73
2021/12/25 07:01:53;;;;;;;58.40;32.10;;;;;;;4.93;84.29;94554.28;5090908;28;20284;-73
2021/12/25 07:04:24;;;;;;;58.20;31.80;;;;;;;5.03;83.65;94560.72;5091005;28;20784;-72
2021/12/25 07:06:53;;;;;;;61.67;31.23;;;;;;;5.01;84.43;94569.59;5091259;28;20205;-71
2021/12/25 07:09:22;;;;;;;63.63;32.83;;;;;;;5.08;84.61;94584.13;5090653;28;20702;-71
2021/12/25 07:11:51;;;;;;;58.50;30.20;;;;;;;5.11;84.09;94573.44;5090708;28;20286;-71
2021/12/25 07:14:20;;;;;;;56.33;29.77;;;;;;;5.07;83.55;94579.16;5090153;28;20935;-71
2021/12/25 07:16:50;;;;;;;52.97;28.70;;;;;;;4.79;84.68;94566.22;5096416;28;20206;-70
2021/12/25 07:19:19;;;;;;;45.60;25.07;;;;;;;4.59;86.92;94563.47;5090195;28;20292;-71
2021/12/25 07:21:50;;;;;;;51.93;26.67;;;;;;;4.59;89.14;94565.25;5090592;28;20209;-70
2021/12/25 07:24:19;;;;;;;53.07;27.97;;;;;;;4.76;89.07;94560.69;5090415;28;20227;-71
2021/12/25 07:26:48;;;;;;;55.87;28.63;;;;;;;4.95;88.52;94565.19;5090442;28;20207;-75
2021/12/25 07:29:17;;;;;;;42.77;24.20;;;;;;;5.09;87.01;94580.56;5090589;28;20270;-78
2021/12/25 07:31:47;;;;;;;40.53;22.67;;;;;;;5.24;84.28;94571.94;5084001;28;20204;-77
2021/12/25 07:34:17;;;;;;;35.70;19.23;;;;;;;5.25;84.08;94581.28;5090438;28;20280;-80
2021/12/25 07:36:46;;;;;;;36.67;19.27;;;;;;;5.31;83.49;94580.53;5090981;28;20269;-79
2021/12/25 07:39:17;;;;;;;36.27;19.60;;;;;;;5.35;84.09;94584.31;5090717;28;20206;-81
2021/12/25 07:41:46;;;;;;;38.27;19.03;;;;;;;5.35;82.64;94584.31;5090927;28;20846;-79
2021/12/25 07:44:17;;;;;;;35.87;20.33;;;;;;;5.44;83.07;94578.03;5086191;28;20649;-79
2021/12/25 07:46:46;;;;;;;36.57;20.23;;;;;;;5.52;81.60;94590.78;5091830;28;20204;-79
2021/12/25 07:49:19;;;;;;;32.87;19.43;;;;;;;5.60;81.56;94593.19;5089332;28;20197;-76
2021/12/25 07:51:48;;;;;;;32.80;18.13;;;;;;;5.58;81.33;94587.44;5090713;28;20198;-80
2021/12/25 07:54:19;;;;;;;31.10;17.40;;;;;;;5.69;80.86;94603.19;5090478;28;20701;-79
2021/12/25 07:56:48;;;;;;;30.80;18.83;;;;;;;5.68;80.84;94593.84;5089796;28;20213;-79
2021/12/25 07:59:17;;;;;;;31.43;18.20;;;;;;;5.68;81.04;94591.28;5087685;28;20660;-78
2021/12/25 08:01:46;;;;;;;30.37;16.00;;;;;;;5.69;79.41;94572.25;5086180;28;20724;-77
2021/12/25 08:04:16;;;;;;;31.30;18.23;;;;;;;5.72;80.37;94596.84;5086688;28;20305;-78
2021/12/25 08:06:46;;;;;;;32.77;17.87;;;;;;;5.75;79.46;94596.47;5089875;28;20217;-81
2021/12/25 08:09:17;;;;;;;33.40;17.33;;;;;;;5.83;79.69;94592.97;5091502;28;20229;-80
2021/12/25 08:11:47;;;;;;;24.97;15.10;;;;;;;5.85;79.42;94599.56;5090352;28;20206;-80
2021/12/25 08:14:18;;;;;;;24.13;14.37;;;;;;;5.94;79.93;94601.00;5085079;28;20188;-79
2021/12/25 08:16:47;;;;;;;27.60;14.83;;;;;;;6.04;78.85;94596.28;5090736;28;20205;-80
2021/12/25 08:19:16;;;;;;;23.53;14.50;;;;;;;6.19;77.06;94596.13;5088723;28;20194;-80
2021/12/25 08:21:44;;;;;;;25.13;14.10;;;;;;;6.32;76.32;94598.75;5090365;28;20210;-79
2021/12/25 08:24:13;;;;;;;23.20;12.97;;;;;;;6.28;75.00;94584.66;5087386;28;20301;-79
2021/12/25 08:26:43;;;;;;;20.57;12.17;;;;;;;6.12;75.56;94587.56;5091679;28;20195;-80
2021/12/25 08:29:14;;;;;;;20.80;11.17;;;;;;;5.89;78.74;94611.06;5094259;28;20362;-80
2021/12/25 08:31:43;;;;;;;22.60;11.57;;;;;;;5.97;77.83;94598.03;5094284;28;20676;-79
2021/12/25 08:34:14;;;;;;;22.70;12.50;;;;;;;6.10;77.47;94605.03;5087397;28;20206;-80
2021/12/25 08:36:44;;;;;;;23.40;12.17;;;;;;;6.29;77.44;94599.94;5093931;28;20224;-80
2021/12/25 08:39:13;;;;;;;19.93;10.70;;;;;;;6.54;76.80;94602.03;5093760;28;20268;-80
2021/12/25 08:41:42;;;;;;;19.33;10.93;;;;;;;6.70;74.17;94592.13;5086999;28;20198;-79
2021/12/25 08:44:32;;;;;;;17.07;9.53;;;;;;;6.85;72.30;94597.94;5093603;28;20234;-81
2021/12/25 08:47:01;;;;;;;18.57;10.10;;;;;;;7.00;71.13;94592.59;5092293;28;20199;-80
2021/12/25 08:49:32;;;;;;;17.30;10.30;;;;;;;7.12;70.84;94585.84;5086593;28;20215;-77
2021/12/25 08:52:03;;;;;;;16.63;9.73;;;;;;;7.17;70.95;94580.06;5093308;28;20207;-76
2021/12/25 08:54:33;;;;;;;22.67;10.77;;;;;;;7.22;69.41;94573.31;5093027;28;20639;-77
2021/12/25 08:57:04;;;;;;;14.33;9.47;;;;;;;7.35;69.04;94577.69;5087021;28;20213;-77
2021/12/25 08:59:35;;;;;;;16.50;10.00;;;;;;;7.32;68.58;94586.63;5086954;28;20292;-78
2021/12/25 09:02:08;;;;;;;16.23;10.53;;;;;;;7.36;68.32;94572.31;5092939;28;20264;-78
2021/12/25 09:04:37;;;;;;;17.70;9.93;;;;;;;7.38;68.07;94557.41;5091145;28;20292;-79
2021/12/25 09:07:07;;;;;;;17.27;10.20;;;;;;;7.54;67.44;94566.53;5092962;28;20215;-77
2021/12/25 09:09:37;;;;;;;18.30;9.87;;;;;;;7.56;67.27;94563.75;5092820;28;20264;-78
2021/12/25 09:12:08;;;;;;;19.07;9.83;;;;;;;7.57;67.71;94552.41;5093066;28;20203;-80
2021/12/25 09:14:39;;;;;;;15.87;9.13;;;;;;;7.59;67.43;94553.78;5086759;28;20235;-80
2021/12/25 09:17:09;;;;;;;13.43;9.33;;;;;;;7.71;67.01;94559.13;5093480;28;20196;-80
2021/12/25 09:19:40;;;;;;;23.47;9.83;;;;;;;7.79;67.19;94553.75;5083530;28;20212;-79
2021/12/25 09:22:10;;;;;;;16.07;9.27;;;;;;;7.85;67.05;94552.94;5090574;28;20283;-79
2021/12/25 09:24:40;;;;;;;15.70;9.07;;;;;;;8.01;66.68;94544.72;5092144;28;20217;-79
2021/12/25 09:27:12;;;;;;;18.27;9.93;;;;;;;8.13;65.81;94545.69;5093396;28;20232;-77
2021/12/25 09:29:47;;;;;;;16.97;9.53;;;;;;;8.23;65.65;94546.03;5092486;28;20201;-79
2021/12/25 09:32:15;;;;;;;18.37;10.10;;;;;;;8.29;65.13;94545.22;5092803;28;20210;-78
2021/12/25 09:34:46;;;;;;;19.50;10.50;;;;;;;8.13;64.83;94543.09;5085368;28;20340;-77
2021/12/25 09:37:15;;;;;;;16.00;10.37;;;;;;;7.70;66.21;94539.44;5088591;28;20208;-79
2021/12/25 09:39:44;;;;;;;17.47;10.23;;;;;;;7.52;68.73;94536.69;5091984;28;20244;-78
2021/12/25 09:42:12;;;;;;;23.60;10.33;;;;;;;7.63;69.01;94528.31;5092910;28;20208;-78
2021/12/25 09:44:40;;;;;;;16.33;9.83;;;;;;;7.75;67.00;94511.97;5084448;28;20348;-79
2021/12/25 09:47:11;;;;;;;17.33;11.17;;;;;;;7.94;66.57;94529.22;5089751;28;20636;-78
2021/12/25 09:49:39;;;;;;;17.50;9.77;;;;;;;8.13;66.17;94517.22;5091147;28;20189;-78
2021/12/25 09:52:08;;;;;;;16.37;9.90;;;;;;;8.32;64.21;94512.97;5090939;28;20246;-79
2021/12/25 09:54:36;;;;;;;15.47;9.90;;;;;;;8.53;64.11;94515.25;5092019;28;20912;-79
2021/12/25 09:57:04;;;;;;;18.37;9.80;;;;;;;8.87;63.35;94511.41;5085347;28;20204;-77
2021/12/25 09:59:32;;;;;;;26.10;11.00;;;;;;;9.36;61.02;94515.78;5094946;28;20242;-79
2021/12/25 10:02:01;;;;;;;21.07;10.60;;;;;;;10.48;58.37;94510.97;5092215;28;20569;-78
2021/12/25 10:04:39;;;;;;;22.17;10.30;;;;;;;12.16;52.34;94522.41;5092063;28;20231;-78
2021/12/25 10:07:22;;;;;;;19.47;9.47;;;;;;;14.38;46.98;94509.47;5092182;28;20734;-75
2021/12/25 10:10:06;;;;;;;15.83;9.50;;;;;;;16.62;41.12;94530.84;5087666;28;20686;-80
2021/12/25 10:12:41;;;;;;;16.23;10.30;;;;;;;17.21;38.60;94514.63;5089270;28;20280;-79
2021/12/25 10:15:13;;;;;;;20.33;10.47;;;;;;;17.11;38.66;94504.13;5087838;28;20250;-80
2021/12/25 10:17:47;;;;;;;17.40;10.47;;;;;;;16.54;39.29;94512.16;5089673;28;20197;-77
2021/12/25 10:20:20;;;;;;;19.33;10.03;;;;;;;16.00;40.18;94506.41;5089764;28;20208;-79
2021/12/25 10:23:01;;;;;;;17.93;10.97;;;;;;;15.73;40.56;94504.69;5092261;28;20193;-78
2021/12/25 10:25:38;;;;;;;30.77;11.73;;;;;;;15.42;41.62;94500.25;5085383;28;20240;-81
2021/12/25 10:28:09;;;;;;;20.47;11.77;;;;;;;15.53;41.24;94498.50;5090155;28;20220;-79
2021/12/25 10:30:50;;;;;;;22.87;12.20;;;;;;;15.45;41.27;94489.28;5091722;28;20204;-78
2021/12/25 10:33:37;;;;;;;22.73;12.53;;;;;;;14.95;42.44;94496.75;5088702;28;20258;-78
2021/12/25 10:36:11;;;;;;;23.90;12.80;;;;;;;14.58;42.60;94489.56;5092328;28;20188;-78
2021/12/25 10:38:40;;;;;;;22.20;12.60;;;;;;;14.10;43.44;94487.72;5089614;28;20220;-78
2021/12/25 10:41:20;;;;;;;26.53;13.77;;;;;;;13.90;44.38;94492.69;5086907;28;20777;-79
2021/12/25 10:43:52;;;;;;;26.40;13.37;;;;;;;14.26;44.07;94486.06;5088709;28;20188;-79
2021/12/25 10:46:21;;;;;;;22.30;13.80;;;;;;;15.57;42.35;94476.81;5091645;28;20205;-79
2021/12/25 10:48:50;;;;;;;26.90;14.83;;;;;;;15.53;41.24;94478.34;5090637;28;20197;-79
2021/12/25 10:51:28;;;;;;;24.73;13.83;;;;;;;14.31;44.17;94480.91;5085003;28;20201;-78
2021/12/25 10:53:58;;;;;;;25.20;13.37;;;;;;;14.36;43.70;94460.06;5091262;28;20200;-77
2021/12/25 10:56:35;;;;;;;27.00;14.30;;;;;;;15.54;41.69;94461.59;5091342;28;20205;-76
2021/12/25 10:59:12;;;;;;;27.60;14.43;;;;;;;17.37;38.44;94474.97;5091142;28;20200;-77
2021/12/25 11:01:42;;;;;;;22.77;13.50;;;;;;;19.05;35.56;94474.09;5085261;28;20204;-78
2021/12/25 11:04:26;;;;;;;23.30;13.60;;;;;;;20.07;33.96;94472.16;5091016;28;20220;-76
2021/12/25 11:07:12;;;;;;;22.97;12.47;;;;;;;21.12;32.06;94471.88;5088931;28;20292;-79
2021/12/25 11:09:41;;;;;;;27.13;12.67;;;;;;;21.54;30.89;94459.56;5091684;28;20266;-78
2021/12/25 11:12:25;;;;;;;17.50;11.83;;;;;;;22.17;30.60;94460.53;5091230;28;20232;-77
2021/12/25 11:14:54;;;;;;;17.10;11.75;;;;;;;22.84;29.42;94442.22;5090904;28;20205;-78
2021/12/25 11:17:32;;;;;;;27.92;11.82;;;;;;;23.15;28.52;94454.47;5095701;28;20207;-77
2021/12/25 11:20:07;;;;;;;21.65;12.20;;;;;;;23.19;28.80;94449.38;5091235;28;20636;-77
2021/12/25 11:22:51;;;;;;;24.33;13.43;;;;;;;23.60;28.45;94449.97;5087422;28;20691;-78
2021/12/25 11:25:21;;;;;;;24.17;14.60;;;;;;;24.25;27.43;94449.34;5090421;28;20597;-77
2021/12/25 11:27:53;;;;;;;25.90;16.08;;;;;;;24.81;26.59;94440.56;5091213;28;20228;-78
2021/12/25 11:30:25;;;;;;;25.38;16.98;;;;;;;25.07;26.12;94432.59;5084738;28;20205;-80
2021/12/25 11:32:56;;;;;;;32.45;19.30;;;;;;;25.02;26.08;94438.84;5085295;28;20208;-79
2021/12/25 11:35:26;;;;;;;29.63;18.27;;;;;;;24.87;26.63;94433.22;5083664;28;20212;-78
2021/12/25 11:37:58;;;;;;;33.60;18.98;;;;;;;24.97;26.60;94435.56;5090623;28;20677;-78
2021/12/25 11:40:30;;;;;;;33.17;19.98;;;;;;;24.91;26.33;94428.84;5091478;28;20291;-79
2021/12/25 11:43:01;;;;;;;32.00;19.38;;;;;;;24.66;26.50;94419.72;5090806;28;20200;-79
2021/12/25 11:45:34;;;;;;;34.33;19.30;;;;;;;24.70;26.60;94416.13;5085721;28;21027;-77
2021/12/25 11:48:14;;;;;;;28.77;17.58;;;;;;;24.65;26.64;94420.81;5090990;28;20203;-79
2021/12/25 11:50:46;;;;;;;30.38;19.67;;;;;;;24.07;27.63;94415.84;5090882;28;20207;-80
2021/12/25 11:53:22;;;;;;;30.83;19.58;;;;;;;23.74;28.18;94418.03;5091156;28;20248;-78
2021/12/25 11:58:56;;;;;;;25.63;17.20;;;;;;;23.66;27.89;94408.94;5083913;28;20679;-78
2021/12/25 12:01:32;;;;;;;30.02;17.33;;;;;;;23.55;27.92;94420.91;5091275;28;20239;-77
2021/12/25 12:04:04;;;;;;;28.15;16.73;;;;;;;22.32;29.50;94417.09;5081287;28;20223;-77
2021/12/25 12:06:59;;;;;;;30.45;18.15;;;;;;;21.14;30.71;94414.22;5088221;28;20255;-78
2021/12/25 12:09:38;;;;;;;26.30;17.35;;;;;;;19.44;33.27;94402.91;5094367;28;20234;-78
2021/12/25 12:12:15;;;;;;;23.95;16.08;;;;;;;18.42;35.28;94396.03;5093883;28;20635;-79
2021/12/25 12:14:44;;;;;;;28.30;15.18;;;;;;;17.81;36.48;94400.78;5088363;28;20243;-77
2021/12/25 12:17:28;;;;;;;37.40;21.17;;;;;;;15.99;39.87;94400.75;5098331;28;20253;-78
2021/12/25 12:20:01;;;;;;;26.90;15.20;;;;;;;14.26;43.25;94384.09;5090161;28;20632;-77
2021/12/25 12:22:53;;;;;;;27.10;15.40;;;;;;;13.51;45.55;94405.72;5094422;28;20204;-80
2021/12/25 12:25:42;;;;;;;28.53;14.17;;;;;;;13.43;45.93;94387.88;5087715;28;20269;-77
2021/12/25 12:28:11;;;;;;;24.83;14.00;;;;;;;13.44;46.24;94399.13;5087653;28;20600;-84
2021/12/25 12:31:08;;;;;;;20.37;12.17;;;;;;;13.07;46.99;94398.84;5094642;28;20221;-81
2021/12/25 12:33:40;;;;;;;23.40;12.47;;;;;;;13.02;47.19;94390.94;5090697;28;20608;-78
2021/12/25 12:36:28;;;;;;;25.23;13.60;;;;;;;12.97;47.58;94409.91;5088040;28;20199;-77
2021/12/25 12:39:14;;;;;;;25.83;12.93;;;;;;;12.87;47.93;94401.16;5087769;28;20199;-78
2021/12/25 12:41:55;;;;;;;31.23;12.77;;;;;;;12.88;48.07;94407.94;5091218;28;20222;-77
2021/12/25 12:44:30;;;;;;;27.10;12.57;;;;;;;12.86;48.13;94410.00;5089500;28;20192;-78
2021/12/25 12:47:06;;;;;;;21.77;12.10;;;;;;;12.74;48.51;94396.25;5093217;28;20215;-79
2021/12/25 12:49:50;;;;;;;23.00;11.67;;;;;;;12.55;48.97;94398.31;5091163;28;20714;-80